createdAt,value
2023-01-17T00:03:58.114Z,20.33
2023-01-17T00:06:44.849Z,20.48
2023-01-17T00:09:54.361Z,19.83
2023-01-17T00:12:23.456Z,20.83
2023-01-17T00:14:57.147Z,18.95
2023-01-17T00:17:27.686Z,19.13
2023-01-17T00:20:15.182Z,20.13
2023-01-17T00:23:06.133Z,17.05
2023-01-17T00:26:05.674Z,20.08
2023-01-17T00:28:48.105Z,16.05
2023-01-17T00:31:17.490Z,17.38
2023-01-17T00:33:45.518Z,18.38
2023-01-17T00:36:19.743Z,16.30
2023-01-17T00:38:52.985Z,18.23
2023-01-17T00:41:43.541Z,16.20
2023-01-17T00:47:58.460Z,17.10
2023-01-17T00:50:45.213Z,15.43
2023-01-17T00:53:35.825Z,15.32
2023-01-17T00:56:25.993Z,21.35
2023-01-17T00:59:14.047Z,17.65
2023-01-17T01:02:01.107Z,20.38
2023-01-17T01:04:50.128Z,14.00
2023-01-17T01:07:36.683Z,16.17
2023-01-17T01:10:30.456Z,13.70
2023-01-17T01:13:21.281Z,14.80
2023-01-17T01:16:12.438Z,17.48
2023-01-17T01:19:05.914Z,15.00
2023-01-17T01:21:55.096Z,12.32
2023-01-17T01:24:41.954Z,12.35
2023-01-17T01:27:33.850Z,13.60
2023-01-17T01:30:26.466Z,12.63
2023-01-17T01:33:19.197Z,14.80
2023-01-17T01:35:52.538Z,11.50
2023-01-17T01:40:56.815Z,12.60
2023-01-17T01:43:45.582Z,11.30
2023-01-17T01:46:37.083Z,12.55
2023-01-17T01:49:18.988Z,10.90
2023-01-17T01:51:58.486Z,10.27
2023-01-17T01:54:36.942Z,11.37
2023-01-17T01:57:16.885Z,17.23
2023-01-17T01:59:51.708Z,18.15
2023-01-17T02:02:22.579Z,15.77
2023-01-17T02:05:04.964Z,18.90
2023-01-17T02:07:53.082Z,15.27
2023-01-17T02:10:30.601Z,17.33
2023-01-17T02:12:59.842Z,12.00
2023-01-17T02:15:43.104Z,14.60
2023-01-17T02:18:19.466Z,12.93
2023-01-17T02:21:09.487Z,14.48
2023-01-17T02:23:57.545Z,15.00
2023-01-17T02:27:02.072Z,15.63
2023-01-17T02:30:01.412Z,18.98
2023-01-17T02:32:45.537Z,18.30
2023-01-17T02:36:09.898Z,15.90
2023-01-17T02:39:04.186Z,13.77
2023-01-17T02:41:41.784Z,14.10
2023-01-17T02:44:26.444Z,10.27
2023-01-17T02:46:59.434Z,16.40
2023-01-17T02:49:35.603Z,12.68
2023-01-17T02:52:47.484Z,11.35
2023-01-17T02:55:30.026Z,12.77
2023-01-17T03:02:08.349Z,15.23
2023-01-17T03:05:21.011Z,11.55
2023-01-17T03:08:12.312Z,13.27
2023-01-17T03:10:52.152Z,9.40
2023-01-17T03:13:38.794Z,9.73
2023-01-17T03:16:24.525Z,12.40
2023-01-17T03:19:06.875Z,10.93
2023-01-17T03:21:38.487Z,9.00
2023-01-17T03:24:07.083Z,10.77
2023-01-17T03:26:47.916Z,14.18
2023-01-17T03:29:18.023Z,9.68
2023-01-17T03:31:47.105Z,8.32
2023-01-17T03:34:16.947Z,9.88
2023-01-17T03:36:44.736Z,12.80
2023-01-17T03:39:18.903Z,12.52
2023-01-17T03:41:46.978Z,10.73
2023-01-17T03:44:23.006Z,7.43
2023-01-17T03:46:51.281Z,12.25
2023-01-17T03:49:23.011Z,11.23
2023-01-17T03:51:53.342Z,9.73
2023-01-17T03:54:24.714Z,9.75
2023-01-17T03:56:54.602Z,13.82
2023-01-17T03:59:22.443Z,8.23
2023-01-17T04:02:04.718Z,11.50
2023-01-17T04:04:32.505Z,12.75
2023-01-17T04:07:00.672Z,10.68
2023-01-17T04:09:28.632Z,9.55
2023-01-17T04:11:57.237Z,9.65
2023-01-17T04:14:25.150Z,13.60
2023-01-17T04:16:53.398Z,8.18
2023-01-17T04:19:22.837Z,9.15
2023-01-17T04:21:54.139Z,13.55
2023-01-17T04:24:25.009Z,11.00
2023-01-17T04:26:53.045Z,8.52
2023-01-17T04:29:23.314Z,7.88
2023-01-17T04:31:51.584Z,10.98
2023-01-17T04:34:19.640Z,10.13
2023-01-17T04:36:48.746Z,10.02
2023-01-17T04:39:16.636Z,10.45
2023-01-17T04:41:44.480Z,8.27
2023-01-17T04:44:12.272Z,9.38
2023-01-17T04:46:40.223Z,10.43
2023-01-17T04:49:12.093Z,7.88
2023-01-17T04:51:49.116Z,9.57
2023-01-17T04:56:49.098Z,9.15
2023-01-17T04:59:18.986Z,12.10
2023-01-17T05:04:25.302Z,9.35
2023-01-17T05:06:55.902Z,13.10
2023-01-17T05:09:24.118Z,12.50
2023-01-17T05:12:12.725Z,10.25
2023-01-17T05:14:44.192Z,11.65
2023-01-17T05:17:15.858Z,15.05
2023-01-17T05:19:43.808Z,12.10
2023-01-17T05:22:15.668Z,12.50
2023-01-17T05:24:49.398Z,10.15
2023-01-17T05:27:17.471Z,6.90
2023-01-17T05:29:48.209Z,9.52
2023-01-17T05:32:27.736Z,6.57
2023-01-17T05:35:22.100Z,8.15
2023-01-17T05:38:01.135Z,8.48
2023-01-17T05:40:36.302Z,8.38
2023-01-17T05:43:04.746Z,12.40
2023-01-17T05:45:36.119Z,11.18
2023-01-17T05:48:09.799Z,9.10
2023-01-17T05:50:38.922Z,10.70
2023-01-17T05:53:10.616Z,7.80
2023-01-17T05:55:56.204Z,9.95
2023-01-17T05:58:28.266Z,15.43
2023-01-17T06:00:59.185Z,12.40
2023-01-17T06:03:31.972Z,8.30
2023-01-17T06:06:08.559Z,7.95
2023-01-17T06:08:43.212Z,7.22
2023-01-17T06:11:11.542Z,10.57
2023-01-17T06:13:39.708Z,13.70
2023-01-17T06:16:27.517Z,13.85
2023-01-17T06:18:57.861Z,7.60
2023-01-17T06:21:30.746Z,9.00
2023-01-17T06:23:59.116Z,7.20
2023-01-17T06:26:27.163Z,10.85
2023-01-17T06:28:58.433Z,10.32
2023-01-17T06:31:29.403Z,9.63
2023-01-17T06:34:04.743Z,15.13
2023-01-17T06:36:36.449Z,9.10
2023-01-17T06:39:07.515Z,11.20
2023-01-17T06:41:35.710Z,8.00
2023-01-17T06:44:17.814Z,9.98
2023-01-17T06:47:14.650Z,10.80
2023-01-17T06:49:50.718Z,6.45
2023-01-17T06:52:21.729Z,10.95
2023-01-17T06:54:59.007Z,7.72
2023-01-17T06:57:34.351Z,10.10
2023-01-17T07:00:13.152Z,12.10
2023-01-17T07:02:56.717Z,10.45
2023-01-17T07:05:36.402Z,9.80
2023-01-17T07:08:31.312Z,10.90
2023-01-17T07:11:01.626Z,12.63
2023-01-17T07:16:25.578Z,21.45
2023-01-17T07:18:55.555Z,20.25
2023-01-17T07:21:30.066Z,17.50
2023-01-17T07:24:07.812Z,19.80
2023-01-17T07:26:56.486Z,21.70
2023-01-17T07:29:29.875Z,17.85
2023-01-17T07:32:13.633Z,25.00
2023-01-17T07:35:06.215Z,16.63
2023-01-17T07:37:39.176Z,15.75
2023-01-17T07:40:18.819Z,16.02
2023-01-17T07:42:49.326Z,15.68
2023-01-17T07:45:28.085Z,17.88
2023-01-17T07:48:02.852Z,17.38
2023-01-17T07:50:31.068Z,21.52
2023-01-17T07:53:33.835Z,21.85
2023-01-17T07:56:07.658Z,22.58
2023-01-17T07:58:48.033Z,20.52
2023-01-17T08:01:34.613Z,19.67
2023-01-17T08:04:18.285Z,13.75
2023-01-17T08:09:52.161Z,12.30
2023-01-17T08:12:26.266Z,11.48
2023-01-17T08:15:05.867Z,13.73
2023-01-17T08:17:41.392Z,14.82
2023-01-17T08:21:29.019Z,12.00
2023-01-17T08:24:19.349Z,10.70
2023-01-17T08:26:57.421Z,13.70
2023-01-17T08:29:34.560Z,16.55
2023-01-17T08:32:20.479Z,13.25
2023-01-17T08:35:14.683Z,10.20
2023-01-17T08:38:26.926Z,12.40
2023-01-17T08:43:53.472Z,9.40
2023-01-17T08:46:24.876Z,11.75
2023-01-17T08:48:58.970Z,12.52
2023-01-17T08:51:33.745Z,13.38
2023-01-17T08:54:02.517Z,9.40
2023-01-17T08:56:30.256Z,11.95
2023-01-17T08:59:07.533Z,13.50
2023-01-17T09:01:43.335Z,11.30
2023-01-17T09:04:15.287Z,16.58
2023-01-17T09:06:56.595Z,20.75
2023-01-17T09:09:31.053Z,22.50
2023-01-17T09:12:05.046Z,19.40
2023-01-17T09:14:33.747Z,18.88
2023-01-17T09:17:15.794Z,18.65
2023-01-17T09:19:50.964Z,15.73
2023-01-17T09:22:19.019Z,13.40
2023-01-17T09:24:46.966Z,19.60
2023-01-17T09:27:14.684Z,12.45
2023-01-17T09:29:54.732Z,15.63
2023-01-17T09:32:32.037Z,15.85
2023-01-17T09:35:11.161Z,18.17
2023-01-17T09:37:42.378Z,16.17
2023-01-17T09:40:18.183Z,11.25
2023-01-17T09:42:47.899Z,13.07
2023-01-17T09:45:20.095Z,13.60
2023-01-17T09:51:26.300Z,11.25
2023-01-17T09:54:03.789Z,13.65
2023-01-17T09:56:42.966Z,12.25
2023-01-17T09:59:45.429Z,17.88
2023-01-17T10:02:37.047Z,14.77
2023-01-17T10:05:27.460Z,16.17
2023-01-17T10:08:12.310Z,14.77
2023-01-17T10:11:06.987Z,12.50
2023-01-17T10:13:53.676Z,14.38
2023-01-17T10:17:08.901Z,13.85
2023-01-17T10:19:59.576Z,15.95
2023-01-17T10:22:58.095Z,17.90
2023-01-17T10:25:34.714Z,16.17
2023-01-17T10:28:23.368Z,17.92
2023-01-17T10:30:54.824Z,16.90
2023-01-17T10:33:33.906Z,24.98
2023-01-17T10:36:23.650Z,21.83
2023-01-17T10:38:57.374Z,23.33
2023-01-17T10:41:34.528Z,30.98
2023-01-17T10:44:02.317Z,24.85
2023-01-17T10:46:45.288Z,27.55
2023-01-17T10:49:23.620Z,24.52
2023-01-17T10:52:23.327Z,25.42
2023-01-17T10:55:10.687Z,28.13
2023-01-17T10:57:44.058Z,23.25
2023-01-17T11:00:30.484Z,25.15
2023-01-17T11:02:59.691Z,18.63
2023-01-17T11:05:32.767Z,19.23
2023-01-17T11:08:06.815Z,22.50
2023-01-17T11:10:42.467Z,27.58
2023-01-17T11:13:37.014Z,26.42
2023-01-17T11:16:09.902Z,28.67
2023-01-17T11:18:40.876Z,27.95
2023-01-17T11:21:23.404Z,25.83
2023-01-17T11:23:56.947Z,25.52
2023-01-17T11:26:33.117Z,25.35
2023-01-17T11:29:26.798Z,27.52
2023-01-17T11:31:56.379Z,24.27
2023-01-17T11:34:26.635Z,24.67
2023-01-17T11:37:19.751Z,29.70
2023-01-17T11:39:48.376Z,28.15
2023-01-17T11:42:37.297Z,32.22
2023-01-17T11:45:26.310Z,24.27
2023-01-17T11:48:10.258Z,22.27
2023-01-17T11:50:42.357Z,27.40
2023-01-17T11:53:48.700Z,22.23
2023-01-17T11:56:33.700Z,22.10
2023-01-17T11:59:34.487Z,24.58
2023-01-17T12:02:31.928Z,24.38
2023-01-17T12:05:36.986Z,23.95
2023-01-17T12:08:10.669Z,28.85
2023-01-17T12:11:14.917Z,29.80
2023-01-17T12:14:01.747Z,27.05
2023-01-17T12:16:41.905Z,22.42
2023-01-17T12:19:33.915Z,21.55
2023-01-17T12:22:02.644Z,22.40
2023-01-17T12:24:49.208Z,25.75
2023-01-17T12:27:23.077Z,21.25
2023-01-17T12:30:09.158Z,21.40
2023-01-17T12:33:08.982Z,22.65
2023-01-17T12:35:59.025Z,25.45
2023-01-17T12:38:36.147Z,23.55
2023-01-17T12:41:11.439Z,23.05
2023-01-17T12:43:43.979Z,24.30
2023-01-17T12:46:27.393Z,24.17
2023-01-17T12:49:16.033Z,20.88
2023-01-17T12:51:47.451Z,15.45
2023-01-17T12:54:36.153Z,22.50
2023-01-17T12:57:14.937Z,23.10
2023-01-17T12:59:58.921Z,20.02
2023-01-17T13:03:04.269Z,20.33
2023-01-17T13:05:41.974Z,22.52
2023-01-17T13:08:19.981Z,25.00
2023-01-17T13:10:58.676Z,21.23
2023-01-17T13:13:30.933Z,20.15
2023-01-17T13:16:20.402Z,21.23
2023-01-17T13:18:49.471Z,19.95
2023-01-17T13:21:32.122Z,19.05
2023-01-17T13:24:13.271Z,19.65
2023-01-17T13:26:55.983Z,20.95
2023-01-17T13:30:11.510Z,21.98
2023-01-17T13:32:45.750Z,19.40
2023-01-17T13:35:43.832Z,24.60
2023-01-17T13:38:20.480Z,22.65
2023-01-17T13:40:53.421Z,20.90
2023-01-17T13:43:35.165Z,26.63
2023-01-17T13:46:04.463Z,24.90
2023-01-17T13:48:38.393Z,22.92
2023-01-17T13:51:11.039Z,23.92
2023-01-17T13:53:38.926Z,25.02
2023-01-17T13:56:20.628Z,27.70
2023-01-17T13:58:50.486Z,27.65
2023-01-17T14:01:24.502Z,26.55
2023-01-17T14:03:53.075Z,21.83
2023-01-17T14:06:37.820Z,21.70
2023-01-17T14:09:11.563Z,26.30
2023-01-17T14:12:09.880Z,26.13
2023-01-17T14:14:40.458Z,25.83
2023-01-17T14:20:10.235Z,26.02
2023-01-17T14:22:48.523Z,27.50
2023-01-17T14:25:28.968Z,27.77
2023-01-17T14:28:08.281Z,24.45
2023-01-17T14:30:38.626Z,23.38
2023-01-17T14:33:16.241Z,24.35
2023-01-17T14:35:56.845Z,26.50
2023-01-17T14:38:33.160Z,25.30
2023-01-17T14:41:02.685Z,30.48
2023-01-17T14:43:33.434Z,30.35
2023-01-17T14:46:04.600Z,26.77
2023-01-17T14:48:32.460Z,26.63
2023-01-17T14:51:00.489Z,27.80
2023-01-17T14:53:33.235Z,30.60
2023-01-17T14:56:14.631Z,29.80
2023-01-17T14:58:42.514Z,30.35
2023-01-17T15:01:13.961Z,29.95
2023-01-17T15:03:55.673Z,28.50
2023-01-17T15:06:27.963Z,27.05
2023-01-17T15:08:55.810Z,33.63
2023-01-17T15:11:26.907Z,34.38
2023-01-17T15:13:57.634Z,31.20
2023-01-17T15:16:29.299Z,30.85
2023-01-17T15:18:57.880Z,38.70
2023-01-17T15:21:32.435Z,30.55
2023-01-17T15:24:08.484Z,30.10
2023-01-17T15:26:41.008Z,33.55
2023-01-17T15:29:18.044Z,32.15
2023-01-17T15:31:51.212Z,30.48
2023-01-17T15:34:22.722Z,37.85
2023-01-17T15:36:51.007Z,32.55
2023-01-17T15:39:23.076Z,32.33
2023-01-17T15:42:10.282Z,35.00
2023-01-17T15:44:49.365Z,36.03
2023-01-17T15:47:38.289Z,37.35
2023-01-17T15:50:32.138Z,33.80
2023-01-17T15:53:06.608Z,36.58
2023-01-17T15:55:38.199Z,39.45
2023-01-17T15:58:29.978Z,38.03
2023-01-17T16:01:04.648Z,34.58
2023-01-17T16:05:20.384Z,36.05
2023-01-17T16:07:56.860Z,32.25
2023-01-17T16:10:45.404Z,31.38
2023-01-17T16:13:20.180Z,30.65
2023-01-17T16:16:23.598Z,35.35
2023-01-17T16:19:02.724Z,31.73
2023-01-17T16:21:32.379Z,33.40
2023-01-17T16:24:12.019Z,33.20
2023-01-17T16:26:41.177Z,34.55
2023-01-17T16:29:10.646Z,35.45
2023-01-17T16:31:44.025Z,31.20
2023-01-17T16:34:15.247Z,29.35
2023-01-17T16:37:08.326Z,36.77
2023-01-17T16:39:47.210Z,29.88
2023-01-17T16:42:18.897Z,30.60
2023-01-17T16:44:50.018Z,31.45
2023-01-17T16:47:21.951Z,32.88
2023-01-17T16:49:50.013Z,35.33
2023-01-17T16:52:20.967Z,33.90
2023-01-17T16:54:52.689Z,36.30
2023-01-17T16:57:35.682Z,37.30
2023-01-17T17:00:08.430Z,35.67
2023-01-17T17:05:41.344Z,39.50
2023-01-17T17:08:10.520Z,38.88
2023-01-17T17:11:28.721Z,41.25
2023-01-17T17:14:01.654Z,32.35
2023-01-17T17:16:33.165Z,33.53
2023-01-17T17:19:03.902Z,34.85
2023-01-17T17:24:41.171Z,32.90
2023-01-17T17:30:36.825Z,32.70
2023-01-17T17:33:09.777Z,32.30
2023-01-17T17:35:38.894Z,38.15
2023-01-17T17:38:18.065Z,34.25
2023-01-17T17:41:00.156Z,34.60
2023-01-17T17:43:39.463Z,37.20
2023-01-17T17:46:13.774Z,33.35
2023-01-17T17:48:48.107Z,38.45
2023-01-17T17:51:38.299Z,36.63
2023-01-17T17:54:23.065Z,33.47
2023-01-17T17:57:03.340Z,35.08
2023-01-17T18:04:17.520Z,41.25
2023-01-17T18:07:12.425Z,43.45
2023-01-17T18:15:15.899Z,31.25
2023-01-17T18:17:48.799Z,36.65
2023-01-17T18:20:17.294Z,31.15
2023-01-17T18:22:49.037Z,33.45
2023-01-17T18:25:18.115Z,38.28
2023-01-17T18:27:46.801Z,35.63
2023-01-17T18:30:26.082Z,31.85
2023-01-17T18:32:56.003Z,37.10
2023-01-17T18:35:31.089Z,36.88
2023-01-17T18:38:07.380Z,37.60
2023-01-17T18:40:41.734Z,49.15
2023-01-17T18:43:15.760Z,36.78
2023-01-17T18:45:56.057Z,33.95
2023-01-17T18:48:29.522Z,36.83
2023-01-17T18:51:03.685Z,40.50
2023-01-17T18:53:34.426Z,35.88
2023-01-17T18:56:06.068Z,37.90
2023-01-17T18:58:41.950Z,43.55
2023-01-17T19:01:17.937Z,34.78
2023-01-17T19:03:51.992Z,34.95
2023-01-17T19:06:26.135Z,39.88
2023-01-17T19:08:58.433Z,36.83
2023-01-17T19:11:33.718Z,40.22
2023-01-17T19:14:02.225Z,36.05
2023-01-17T19:16:34.934Z,42.60
2023-01-17T19:19:05.924Z,38.72
2023-01-17T19:21:36.592Z,40.78
2023-01-17T19:24:32.301Z,41.97
2023-01-17T19:27:00.259Z,39.72
2023-01-17T19:29:28.896Z,38.55
2023-01-17T19:31:58.974Z,38.92
2023-01-17T19:34:26.942Z,39.90
2023-01-17T19:36:58.291Z,36.20
2023-01-17T19:39:41.496Z,36.38
2023-01-17T19:42:15.648Z,39.20
2023-01-17T19:44:46.623Z,35.75
2023-01-17T19:47:20.630Z,39.22
2023-01-17T19:49:49.712Z,36.30
2023-01-17T19:52:26.380Z,40.88
2023-01-17T19:54:54.500Z,37.65
2023-01-17T19:57:35.529Z,37.80
2023-01-17T20:00:09.202Z,41.03
2023-01-17T20:02:40.631Z,36.83
2023-01-17T20:05:09.332Z,43.03
2023-01-17T20:07:37.516Z,38.83
2023-01-17T20:10:06.016Z,43.38
2023-01-17T20:12:33.978Z,36.75
2023-01-17T20:15:01.882Z,38.85
2023-01-17T20:17:29.944Z,38.53
2023-01-17T20:19:58.083Z,41.08
2023-01-17T20:22:26.318Z,33.17
2023-01-17T20:24:54.316Z,39.13
2023-01-17T20:27:26.715Z,45.00
2023-01-17T20:29:54.614Z,38.38
2023-01-17T20:32:22.430Z,35.97
2023-01-17T20:34:51.476Z,40.75
2023-01-17T20:37:19.220Z,42.17
2023-01-17T20:39:48.105Z,37.78
2023-01-17T20:42:15.962Z,40.28
2023-01-17T20:44:43.829Z,41.00
2023-01-17T20:47:11.669Z,39.83
2023-01-17T20:49:41.708Z,46.25
2023-01-17T20:52:09.623Z,46.95
2023-01-17T20:54:37.595Z,49.00
2023-01-17T20:57:05.596Z,42.03
2023-01-17T20:59:34.097Z,50.47
2023-01-17T21:02:03.301Z,40.70
2023-01-17T21:04:31.411Z,45.38
2023-01-17T21:06:59.345Z,48.95
2023-01-17T21:09:27.609Z,39.92
2023-01-17T21:12:01.335Z,39.85
2023-01-17T21:14:29.600Z,41.10
2023-01-17T21:16:57.797Z,44.45
2023-01-17T21:19:26.032Z,41.58
2023-01-17T21:21:54.130Z,48.60
2023-01-17T21:24:22.079Z,37.30
2023-01-17T21:26:51.585Z,39.53
2023-01-17T21:29:19.518Z,42.28
2023-01-17T21:31:47.773Z,46.08
2023-01-17T21:34:18.273Z,39.28
2023-01-17T21:36:49.970Z,42.10
2023-01-17T21:39:20.112Z,59.60
2023-01-17T21:47:18.489Z,38.67
2023-01-17T21:50:06.374Z,40.90
2023-01-17T21:53:09.004Z,43.00
2023-01-17T21:56:08.812Z,41.92
2023-01-17T21:58:45.056Z,40.03
2023-01-17T22:08:23.672Z,41.63
2023-01-17T22:10:52.006Z,36.60
2023-01-17T22:13:20.381Z,44.67
2023-01-17T22:16:02.453Z,40.22
2023-01-17T22:18:31.229Z,36.80
2023-01-17T22:21:03.343Z,39.00
2023-01-17T22:23:31.457Z,36.97
2023-01-17T22:26:19.105Z,39.78
2023-01-17T22:28:58.174Z,37.85
2023-01-17T22:31:33.984Z,35.78
2023-01-17T22:34:04.968Z,37.38
2023-01-17T22:36:33.857Z,38.22
2023-01-17T22:39:11.576Z,38.53
2023-01-17T23:14:55.254Z,28.77
2023-01-17T23:18:17.575Z,31.83
2023-01-17T23:20:48.767Z,32.35
2023-01-17T23:23:38.036Z,25.90
2023-01-17T23:26:06.457Z,28.13
2023-01-17T23:28:37.727Z,31.85
2023-01-17T23:31:06.725Z,29.58
2023-01-17T23:34:16.237Z,27.75
2023-01-17T23:36:51.002Z,28.00
2023-01-17T23:39:20.837Z,28.73
2023-01-17T23:42:19.368Z,28.15
2023-01-17T23:44:51.808Z,24.58
2023-01-17T23:47:37.358Z,25.40
2023-01-17T23:50:07.302Z,26.98
2023-01-17T23:52:37.644Z,28.85
2023-01-17T23:55:24.323Z,26.90
2023-01-17T23:58:05.956Z,23.95
